Helene — V7VF9 — position and weather

sailwx.info

Track history (hours):
 
Tides and Currents Weather Stations Pressure Air Temp Water Temp Dewpoint Dewpoint Depression Visibility Wind Speed Wind Dir Waves Ship Positions

Helene

Last reported at 2014-Sep-27 04:22 UTC. Time now 2014-Sep-30 15:58 UTC.
Position N 25°34' W 079°39'.

Length 207 m; draft 8.6 m.

Type: Cargo ship. MMSI: 538090420.

Date/timePositionNaut miles runAvg speedWind from/ knotsBaromVisibWave heightAir tempDewpointWater temp
2014-Sep-27 04:22N 25°34' W 079°39'1416.8
2014-Sep-27 03:31N 25°48' W 079°37'1616.8
2014-Sep-27 02:33N 26°04' W 079°34'1716.9
2014-Sep-27 01:33N 26°21' W 079°32'1717.3
2014-Sep-27 00:33N 26°38' W 079°29'  
2014-Sep-21 13:20N 39°42' W 075°31'80116.7
2014-Sep-19 13:29N 26°50' W 079°44'2122.4
2014-Sep-19 12:33N 26°30' W 079°46'2222.1
2014-Sep-19 11:33N 26°08' W 079°48'2221.8
2014-Sep-19 10:33N 25°46' W 079°51'  
Track history (hours):
 
Tides and Currents Weather Stations Pressure Air Temp Water Temp Dewpoint Dewpoint Depression Visibility Wind Speed Wind Dir Waves Ship Positions

Helene

Last reported at 2014-Sep-27 04:22 UTC. Time now 2014-Sep-30 15:58 UTC.
Position N 25°34' W 079°39'.

Length 207 m; draft 8.6 m.

Type: Cargo ship. MMSI: 538090420.

Date/timePositionNaut miles runAvg speedWind from/ knotsBaromVisibWave heightAir tempDewpointWater temp
2014-Sep-27 04:22N 25°34' W 079°39'1416.8
2014-Sep-27 03:31N 25°48' W 079°37'1616.8
2014-Sep-27 02:33N 26°04' W 079°34'1716.9
2014-Sep-27 01:33N 26°21' W 079°32'1717.3
2014-Sep-27 00:33N 26°38' W 079°29'  
2014-Sep-21 13:20N 39°42' W 075°31'80116.7
2014-Sep-19 13:29N 26°50' W 079°44'2122.4
2014-Sep-19 12:33N 26°30' W 079°46'2222.1
2014-Sep-19 11:33N 26°08' W 079°48'2221.8
2014-Sep-19 10:33N 25°46' W 079°51'  

Dump ship's entire track history